PWSweather.com
Personal Weather Stations
Station Observations
KMAMEDFI2
Medfield, MA 02052

Medfield, MA 02052

Lat: 42.1900822, Lon: -71.3296889

Elevation: 138

Station Type: Rainwise WS MK-III

http://www.medfieldweather.com

High Low Average
Temperature 59.6°F15.3°C 35.2°F1.8°C 51.4°F10.8°C
Dew Point 51.3°F10.7°C 33.9°F1.1°C 43.5°F6.4°C
Winds 5.4 mph 8.7 kmh Calm Calm 2.0 mph SE3.2 kmh SE
Wind Gusts 14.3 mph23.0 kmh -- 4.0 mph6.4 kmh
Humidity 96% 54% 76%
Pressure 30.44 in1030.8 mb 30.27 in1025.1 mb -
Precipitation 0.00 in0.0 mm - -
Hour Temp Dew Point Humidity Winds Wind Gusts Pressure Precip Precip Rate Daily Precip Total
12:00 AM 57.1°F13.9°C 51.3°F10.7°C 81% 1.8 mph ENE2.9 kmh ENE 6.5 mph10.5 kmh 30.27 in1025.1 mb - 0.00 in0.0 mm 0.00 in0.0 mm
12:10 AM 56.9°F13.8°C 51.2°F10.7°C 81% 2.5 mph ENE4.0 kmh ENE 5.2 mph8.4 kmh 30.27 in1025.1 mb - 0.00 in0.0 mm 0.00 in0.0 mm
12:20 AM 56.9°F13.8°C 50.1°F10.1°C 78% 4.2 mph ESE6.8 kmh ESE 7.8 mph12.6 kmh 30.29 in1025.7 mb - 0.00 in0.0 mm 0.00 in0.0 mm
12:30 AM 56.8°F13.8°C 49.6°F9.8°C 77% 3.1 mph E5.0 kmh E 9.1 mph14.6 kmh 30.27 in1025.1 mb - 0.00 in0.0 mm 0.00 in0.0 mm
12:40 AM 56.7°F13.7°C 49.2°F9.6°C 76% 0.4 mph S0.6 kmh S 2.6 mph4.2 kmh 30.29 in1025.7 mb - 0.00 in0.0 mm 0.00 in0.0 mm
12:50 AM 56.6°F13.7°C 49.1°F9.5°C 76% 2.0 mph E3.2 kmh E 2.6 mph4.2 kmh 30.29 in1025.7 mb - 0.00 in0.0 mm 0.00 in0.0 mm
01:00 AM 56.5°F13.6°C 49.0°F9.4°C 76% 1.0 mph WNW1.6 kmh WNW 2.6 mph4.2 kmh 30.29 in1025.7 mb - 0.00 in0.0 mm 0.00 in0.0 mm
01:10 AM 56.3°F13.5°C 48.8°F9.3°C 76% 0.7 mph S1.1 kmh S 2.6 mph4.2 kmh 30.30 in1026.1 mb - 0.00 in0.0 mm 0.00 in0.0 mm
01:20 AM 56.2°F13.4°C 48.7°F9.3°C 76% 2.0 mph W3.2 kmh W 5.2 mph8.4 kmh 30.29 in1025.7 mb - 0.00 in0.0 mm 0.00 in0.0 mm
01:30 AM 56.1°F13.4°C 48.3°F9.1°C 75% 0.8 mph WNW1.3 kmh WNW 3.9 mph6.3 kmh 30.30 in1026.1 mb - 0.00 in0.0 mm 0.00 in0.0 mm
01:40 AM 55.9°F13.3°C 48.1°F8.9°C 75% 1.0 mph NNW1.6 kmh NNW 2.6 mph4.2 kmh 30.30 in1026.1 mb - 0.00 in0.0 mm 0.00 in0.0 mm
01:50 AM 55.9°F13.3°C 48.1°F8.9°C 75% 2.4 mph NE3.9 kmh NE 2.6 mph4.2 kmh 30.30 in1026.1 mb - 0.00 in0.0 mm 0.00 in0.0 mm
02:00 AM 55.8°F13.2°C 48.0°F8.9°C 75% 0.2 mph NW0.3 kmh NW -- 30.31 in1026.4 mb - 0.00 in0.0 mm 0.00 in0.0 mm
02:10 AM 55.7°F13.2°C 47.9°F8.8°C 75% Calm Calm -- 30.30 in1026.1 mb - 0.00 in0.0 mm 0.00 in0.0 mm
02:20 AM 55.4°F13.0°C 48.0°F8.9°C 76% 0.9 mph NNW1.4 kmh NNW 2.6 mph4.2 kmh 30.30 in1026.1 mb - 0.00 in0.0 mm 0.00 in0.0 mm
02:30 AM 55.4°F13.0°C 48.0°F8.9°C 76% 0.3 mph NNE0.5 kmh NNE 2.6 mph4.2 kmh 30.31 in1026.4 mb - 0.00 in0.0 mm 0.00 in0.0 mm
02:40 AM 55.5°F13.1°C 48.4°F9.1°C 77% 0.8 mph E1.3 kmh E 2.6 mph4.2 kmh 30.31 in1026.4 mb - 0.00 in0.0 mm 0.00 in0.0 mm
02:50 AM 55.7°F13.2°C 48.9°F9.4°C 78% 2.6 mph E4.2 kmh E 5.2 mph8.4 kmh 30.32 in1026.8 mb - 0.00 in0.0 mm 0.00 in0.0 mm
03:00 AM 55.9°F13.3°C 48.4°F9.1°C 76% 3.5 mph SE5.6 kmh SE 7.8 mph12.6 kmh 30.32 in1026.8 mb - 0.00 in0.0 mm 0.00 in0.0 mm
03:10 AM 56.0°F13.3°C 47.8°F8.8°C 74% 2.7 mph E4.3 kmh E 3.9 mph6.3 kmh 30.31 in1026.4 mb - 0.00 in0.0 mm 0.00 in0.0 mm
03:20 AM 55.9°F13.3°C 47.3°F8.5°C 73% 2.5 mph SE4.0 kmh SE 5.2 mph8.4 kmh 30.31 in1026.4 mb - 0.00 in0.0 mm 0.00 in0.0 mm
03:30 AM 55.7°F13.2°C 47.2°F8.4°C 73% 2.7 mph E4.3 kmh E 6.5 mph10.5 kmh 30.31 in1026.4 mb - 0.00 in0.0 mm 0.00 in0.0 mm
03:40 AM 55.7°F13.2°C 46.8°F8.2°C 72% 2.6 mph ESE4.2 kmh ESE 7.8 mph12.6 kmh 30.31 in1026.4 mb - 0.00 in0.0 mm 0.00 in0.0 mm
03:50 AM 55.4°F13.0°C 46.2°F7.9°C 71% 4.7 mph ENE7.6 kmh ENE 11.7 mph18.8 kmh 30.31 in1026.4 mb - 0.00 in0.0 mm 0.00 in0.0 mm
04:00 AM 55.2°F12.9°C 46.4°F8.0°C 72% 2.2 mph ENE3.5 kmh ENE 2.6 mph4.2 kmh 30.31 in1026.4 mb - 0.00 in0.0 mm 0.00 in0.0 mm
04:10 AM 55.0°F12.8°C 46.9°F8.3°C 74% 1.9 mph S3.1 kmh S 2.6 mph4.2 kmh 30.31 in1026.4 mb - 0.00 in0.0 mm 0.00 in0.0 mm
04:20 AM 54.8°F12.7°C 47.1°F8.4°C 75% 4.1 mph ENE6.6 kmh ENE 10.4 mph16.7 kmh 30.32 in1026.8 mb - 0.00 in0.0 mm 0.00 in0.0 mm
04:30 AM 54.8°F12.7°C 47.4°F8.6°C 76% 1.6 mph S2.6 kmh S 2.6 mph4.2 kmh 30.33 in1027.1 mb - 0.00 in0.0 mm 0.00 in0.0 mm
04:40 AM 54.7°F12.6°C 47.9°F8.8°C 78% 1.4 mph ENE2.3 kmh ENE 7.8 mph12.6 kmh 30.31 in1026.4 mb - 0.00 in0.0 mm 0.00 in0.0 mm
04:50 AM 54.4°F12.4°C 47.7°F8.7°C 78% 2.8 mph E4.5 kmh E 5.2 mph8.4 kmh 30.31 in1026.4 mb - 0.00 in0.0 mm 0.00 in0.0 mm
05:00 AM 54.4°F12.4°C 47.7°F8.7°C 78% 3.6 mph ESE5.8 kmh ESE 9.1 mph14.6 kmh 30.33 in1027.1 mb - 0.00 in0.0 mm 0.00 in0.0 mm
05:10 AM 54.6°F12.6°C 47.5°F8.6°C 77% 2.4 mph NE3.9 kmh NE 6.5 mph10.5 kmh 30.33 in1027.1 mb - 0.00 in0.0 mm 0.00 in0.0 mm
05:20 AM 54.4°F12.4°C 47.0°F8.3°C 76% 3.2 mph E5.1 kmh E 7.8 mph12.6 kmh 30.33 in1027.1 mb - 0.00 in0.0 mm 0.00 in0.0 mm
05:30 AM 54.2°F12.3°C 46.8°F8.2°C 76% 2.4 mph E3.9 kmh E 5.2 mph8.4 kmh 30.34 in1027.4 mb - 0.00 in0.0 mm 0.00 in0.0 mm
05:40 AM 53.8°F12.1°C 46.4°F8.0°C 76% 2.8 mph ESE4.5 kmh ESE 5.2 mph8.4 kmh 30.34 in1027.4 mb - 0.00 in0.0 mm 0.00 in0.0 mm
05:50 AM 53.5°F11.9°C 46.5°F8.1°C 77% 2.2 mph SE3.5 kmh SE 5.2 mph8.4 kmh 30.35 in1027.8 mb - 0.00 in0.0 mm 0.00 in0.0 mm
06:00 AM 53.2°F11.8°C 46.6°F8.1°C 78% 2.2 mph N3.5 kmh N 2.6 mph4.2 kmh 30.35 in1027.8 mb - 0.00 in0.0 mm 0.00 in0.0 mm
06:10 AM 53.0°F11.7°C 46.3°F7.9°C 78% 0.7 mph N1.1 kmh N 2.6 mph4.2 kmh 30.36 in1028.1 mb - 0.00 in0.0 mm 0.00 in0.0 mm
06:20 AM 52.8°F11.6°C 45.8°F7.7°C 77% 2.4 mph SE3.9 kmh SE 5.2 mph8.4 kmh 30.36 in1028.1 mb - 0.00 in0.0 mm 0.00 in0.0 mm
06:30 AM 52.5°F11.4°C 45.8°F7.7°C 78% 1.6 mph SSE2.6 kmh SSE 5.2 mph8.4 kmh 30.36 in1028.1 mb - 0.00 in0.0 mm 0.00 in0.0 mm
06:40 AM 52.3°F11.3°C 45.3°F7.4°C 77% 1.2 mph NW1.9 kmh NW 1.3 mph2.1 kmh 30.37 in1028.4 mb - 0.00 in0.0 mm 0.00 in0.0 mm
06:50 AM 52.3°F11.3°C 44.6°F7.0°C 75% 4.7 mph E7.6 kmh E 6.5 mph10.5 kmh 30.37 in1028.4 mb - 0.00 in0.0 mm 0.00 in0.0 mm
07:00 AM 52.3°F11.3°C 44.9°F7.2°C 76% 2.5 mph WSW4.0 kmh WSW 3.9 mph6.3 kmh 30.37 in1028.4 mb - 0.00 in0.0 mm 0.00 in0.0 mm
07:10 AM 52.3°F11.3°C 45.3°F7.4°C 77% 2.1 mph SSW3.4 kmh SSW 2.6 mph4.2 kmh 30.38 in1028.8 mb - 0.00 in0.0 mm 0.00 in0.0 mm
07:20 AM 52.7°F11.5°C 45.3°F7.4°C 76% 1.6 mph E2.6 kmh E 1.3 mph2.1 kmh 30.38 in1028.8 mb - 0.00 in0.0 mm 0.00 in0.0 mm
07:30 AM 52.9°F11.6°C 45.2°F7.3°C 75% 1.7 mph E2.7 kmh E 7.8 mph12.6 kmh 30.39 in1029.1 mb - 0.00 in0.0 mm 0.00 in0.0 mm
07:40 AM 53.3°F11.8°C 45.6°F7.6°C 75% 2.5 mph E4.0 kmh E 5.2 mph8.4 kmh 30.39 in1029.1 mb - 0.00 in0.0 mm 0.00 in0.0 mm
07:50 AM 53.5°F11.9°C 45.8°F7.7°C 75% 2.4 mph NE3.9 kmh NE 5.2 mph8.4 kmh 30.40 in1029.5 mb - 0.00 in0.0 mm 0.00 in0.0 mm
08:00 AM 53.7°F12.1°C 45.7°F7.6°C 74% 3.7 mph ESE6.0 kmh ESE 9.1 mph14.6 kmh 30.40 in1029.5 mb - 0.00 in0.0 mm 0.00 in0.0 mm
08:10 AM 54.1°F12.3°C 46.0°F7.8°C 74% 3.2 mph ESE5.1 kmh ESE 9.1 mph14.6 kmh 30.40 in1029.5 mb - 0.00 in0.0 mm 0.00 in0.0 mm
08:20 AM 54.1°F12.3°C 46.0°F7.8°C 74% 4.7 mph ESE7.6 kmh ESE 10.4 mph16.7 kmh 30.40 in1029.5 mb - 0.00 in0.0 mm 0.00 in0.0 mm
08:30 AM 54.3°F12.4°C 45.8°F7.7°C 73% 3.5 mph E5.6 kmh E 2.6 mph4.2 kmh 30.40 in1029.5 mb - 0.00 in0.0 mm 0.00 in0.0 mm
08:40 AM 53.9°F12.2°C 46.2°F7.9°C 75% 1.7 mph E2.7 kmh E 5.2 mph8.4 kmh 30.41 in1029.8 mb - 0.00 in0.0 mm 0.00 in0.0 mm
08:50 AM 54.9°F12.7°C 46.0°F7.8°C 72% 4.8 mph ESE7.7 kmh ESE 7.8 mph12.6 kmh 30.41 in1029.8 mb - 0.00 in0.0 mm 0.00 in0.0 mm
09:00 AM 54.8°F12.7°C 45.2°F7.3°C 70% 3.6 mph E5.8 kmh E 6.5 mph10.5 kmh 30.41 in1029.8 mb - 0.00 in0.0 mm 0.00 in0.0 mm
09:10 AM 54.9°F12.7°C 44.9°F7.2°C 69% 4.7 mph NE7.6 kmh NE 11.7 mph18.8 kmh 30.40 in1029.5 mb - 0.00 in0.0 mm 0.00 in0.0 mm
09:20 AM 55.2°F12.9°C 44.8°F7.1°C 68% 5.1 mph S8.2 kmh S 6.5 mph10.5 kmh 30.41 in1029.8 mb - 0.00 in0.0 mm 0.00 in0.0 mm
09:30 AM 55.6°F13.1°C 46.0°F7.8°C 70% 3.8 mph N6.1 kmh N 14.3 mph23.0 kmh 30.41 in1029.8 mb - 0.00 in0.0 mm 0.00 in0.0 mm
09:40 AM 55.7°F13.2°C 44.5°F6.9°C 66% 3.7 mph ESE6.0 kmh ESE 6.5 mph10.5 kmh 30.41 in1029.8 mb - 0.00 in0.0 mm 0.00 in0.0 mm
09:50 AM 55.9°F13.3°C 44.7°F7.1°C 66% 3.0 mph E4.8 kmh E 5.2 mph8.4 kmh 30.41 in1029.8 mb - 0.00 in0.0 mm 0.00 in0.0 mm
10:00 AM 56.6°F13.7°C 44.6°F7.0°C 64% 5.1 mph ESE8.2 kmh ESE 13.0 mph20.9 kmh 30.41 in1029.8 mb - 0.00 in0.0 mm 0.00 in0.0 mm
10:10 AM 56.3°F13.5°C 44.3°F6.8°C 64% 5.4 mph NNE8.7 kmh NNE 9.1 mph14.6 kmh 30.41 in1029.8 mb - 0.00 in0.0 mm 0.00 in0.0 mm
10:20 AM 56.6°F13.7°C 44.6°F7.0°C 64% 4.5 mph ESE7.2 kmh ESE 9.1 mph14.6 kmh 30.42 in1030.1 mb - 0.00 in0.0 mm 0.00 in0.0 mm
10:30 AM 56.8°F13.8°C 43.9°F6.6°C 62% 5.0 mph ESE8.0 kmh ESE 7.8 mph12.6 kmh 30.42 in1030.1 mb - 0.00 in0.0 mm 0.00 in0.0 mm
10:40 AM 57.3°F14.1°C 44.4°F6.9°C 62% 3.4 mph SE5.5 kmh SE 3.9 mph6.3 kmh 30.42 in1030.1 mb - 0.00 in0.0 mm 0.00 in0.0 mm
10:50 AM 58.2°F14.6°C 44.8°F7.1°C 61% 3.8 mph NE6.1 kmh NE 9.1 mph14.6 kmh 30.43 in1030.5 mb - 0.00 in0.0 mm 0.00 in0.0 mm
11:00 AM 58.2°F14.6°C 44.4°F6.9°C 60% 4.2 mph SE6.8 kmh SE 7.8 mph12.6 kmh 30.43 in1030.5 mb - 0.00 in0.0 mm 0.00 in0.0 mm
11:10 AM 58.4°F14.7°C 44.5°F6.9°C 60% 3.7 mph SE6.0 kmh SE 9.1 mph14.6 kmh 30.43 in1030.5 mb - 0.00 in0.0 mm 0.00 in0.0 mm
11:20 AM 58.5°F14.7°C 44.2°F6.8°C 59% 4.6 mph NNE7.4 kmh NNE 7.8 mph12.6 kmh 30.44 in1030.8 mb - 0.00 in0.0 mm 0.00 in0.0 mm
11:30 AM 58.8°F14.9°C 44.5°F6.9°C 59% 3.6 mph ESE5.8 kmh ESE 6.5 mph10.5 kmh 30.43 in1030.5 mb - 0.00 in0.0 mm 0.00 in0.0 mm
11:40 AM 58.5°F14.7°C 44.2°F6.8°C 59% 3.8 mph ESE6.1 kmh ESE 7.8 mph12.6 kmh 30.43 in1030.5 mb - 0.00 in0.0 mm 0.00 in0.0 mm
11:50 AM 58.9°F14.9°C 44.6°F7.0°C 59% 2.5 mph ESE4.0 kmh ESE 6.5 mph10.5 kmh 30.43 in1030.5 mb - 0.00 in0.0 mm 0.00 in0.0 mm
12:00 PM 59.0°F15.0°C 43.8°F6.6°C 57% 3.9 mph ESE6.3 kmh ESE 5.2 mph8.4 kmh 30.43 in1030.5 mb - 0.00 in0.0 mm 0.00 in0.0 mm
12:10 PM 59.1°F15.1°C 44.8°F7.1°C 59% 4.1 mph E6.6 kmh E 5.2 mph8.4 kmh 30.43 in1030.5 mb - 0.00 in0.0 mm 0.00 in0.0 mm
12:20 PM 59.0°F15.0°C 43.8°F6.6°C 57% 4.0 mph SE6.4 kmh SE 6.5 mph10.5 kmh 30.42 in1030.1 mb - 0.00 in0.0 mm 0.00 in0.0 mm
12:30 PM 58.9°F14.9°C 43.7°F6.5°C 57% 3.8 mph E6.1 kmh E 6.5 mph10.5 kmh 30.42 in1030.1 mb - 0.00 in0.0 mm 0.00 in0.0 mm
12:40 PM 58.7°F14.8°C 43.0°F6.1°C 56% 5.2 mph E8.4 kmh E 7.8 mph12.6 kmh 30.42 in1030.1 mb - 0.00 in0.0 mm 0.00 in0.0 mm
12:50 PM 58.7°F14.8°C 43.9°F6.6°C 58% 3.8 mph E6.1 kmh E 6.5 mph10.5 kmh 30.42 in1030.1 mb - 0.00 in0.0 mm 0.00 in0.0 mm
01:00 PM 59.4°F15.2°C 43.7°F6.5°C 56% 3.5 mph ENE5.6 kmh ENE 9.1 mph14.6 kmh 30.42 in1030.1 mb - 0.00 in0.0 mm 0.00 in0.0 mm
01:10 PM 59.6°F15.3°C 44.8°F7.1°C 58% 3.6 mph NE5.8 kmh NE 7.8 mph12.6 kmh 30.42 in1030.1 mb - 0.00 in0.0 mm 0.00 in0.0 mm
01:20 PM 59.6°F15.3°C 43.4°F6.3°C 55% 3.7 mph NE6.0 kmh NE 5.2 mph8.4 kmh 30.42 in1030.1 mb - 0.00 in0.0 mm 0.00 in0.0 mm
01:30 PM 59.6°F15.3°C 43.9°F6.6°C 56% 4.4 mph NE7.1 kmh NE 9.1 mph14.6 kmh 30.42 in1030.1 mb - 0.00 in0.0 mm 0.00 in0.0 mm
01:40 PM 59.0°F15.0°C 43.3°F6.3°C 56% 4.5 mph E7.2 kmh E 7.8 mph12.6 kmh 30.42 in1030.1 mb - 0.00 in0.0 mm 0.00 in0.0 mm
01:50 PM 58.9°F14.9°C 42.3°F5.7°C 54% 3.3 mph SE5.3 kmh SE 5.2 mph8.4 kmh 30.41 in1029.8 mb - 0.00 in0.0 mm 0.00 in0.0 mm
02:00 PM 58.9°F14.9°C 42.3°F5.7°C 54% 3.7 mph NE6.0 kmh NE 7.8 mph12.6 kmh 30.41 in1029.8 mb - 0.00 in0.0 mm 0.00 in0.0 mm
02:10 PM 58.8°F14.9°C 42.7°F5.9°C 55% 4.0 mph ESE6.4 kmh ESE 9.1 mph14.6 kmh 30.41 in1029.8 mb - 0.00 in0.0 mm 0.00 in0.0 mm
02:20 PM 58.4°F14.7°C 41.8°F5.4°C 54% 3.6 mph ESE5.8 kmh ESE 9.1 mph14.6 kmh 30.41 in1029.8 mb - 0.00 in0.0 mm 0.00 in0.0 mm
02:30 PM 57.3°F14.1°C 42.2°F5.7°C 57% 3.2 mph NNW5.1 kmh NNW 9.1 mph14.6 kmh 30.41 in1029.8 mb - 0.00 in0.0 mm 0.00 in0.0 mm
02:40 PM 57.0°F13.9°C 41.4°F5.2°C 56% 4.0 mph SE6.4 kmh SE 9.1 mph14.6 kmh 30.41 in1029.8 mb - 0.00 in0.0 mm 0.00 in0.0 mm
02:50 PM 56.4°F13.6°C 41.8°F5.4°C 58% 2.8 mph E4.5 kmh E 6.5 mph10.5 kmh 30.41 in1029.8 mb - 0.00 in0.0 mm 0.00 in0.0 mm
03:00 PM 56.0°F13.3°C 39.5°F4.2°C 54% 4.0 mph E6.4 kmh E 6.5 mph10.5 kmh 30.41 in1029.8 mb - 0.00 in0.0 mm 0.00 in0.0 mm
03:10 PM 55.6°F13.1°C 40.6°F4.8°C 57% 3.3 mph ENE5.3 kmh ENE 5.2 mph8.4 kmh 30.40 in1029.5 mb - 0.00 in0.0 mm 0.00 in0.0 mm
03:20 PM 55.3°F12.9°C 41.2°F5.1°C 59% 2.8 mph N4.5 kmh N 3.9 mph6.3 kmh 30.40 in1029.5 mb - 0.00 in0.0 mm 0.00 in0.0 mm
03:30 PM 55.1°F12.8°C 41.1°F5.1°C 59% 3.7 mph NE6.0 kmh NE 9.1 mph14.6 kmh 30.40 in1029.5 mb - 0.00 in0.0 mm 0.00 in0.0 mm
03:40 PM 54.9°F12.7°C 40.8°F4.9°C 59% 3.2 mph ESE5.1 kmh ESE 5.2 mph8.4 kmh 30.40 in1029.5 mb - 0.00 in0.0 mm 0.00 in0.0 mm
03:50 PM 54.6°F12.6°C 41.4°F5.2°C 61% 2.9 mph E4.7 kmh E 5.2 mph8.4 kmh 30.39 in1029.1 mb - 0.00 in0.0 mm 0.00 in0.0 mm
04:00 PM 54.8°F12.7°C 42.0°F5.6°C 62% 2.2 mph E3.5 kmh E 3.9 mph6.3 kmh 30.40 in1029.5 mb - 0.00 in0.0 mm 0.00 in0.0 mm
04:10 PM 54.9°F12.7°C 41.7°F5.4°C 61% 2.3 mph SE3.7 kmh SE 2.6 mph4.2 kmh 30.40 in1029.5 mb - 0.00 in0.0 mm 0.00 in0.0 mm
04:20 PM 54.9°F12.7°C 42.5°F5.8°C 63% 1.3 mph ENE2.1 kmh ENE 2.6 mph4.2 kmh 30.40 in1029.5 mb - 0.00 in0.0 mm 0.00 in0.0 mm
04:30 PM 53.7°F12.1°C 42.2°F5.7°C 65% 2.0 mph NE3.2 kmh NE 2.6 mph4.2 kmh 30.40 in1029.5 mb - 0.00 in0.0 mm 0.00 in0.0 mm
04:40 PM 52.7°F11.5°C 42.4°F5.8°C 68% 2.0 mph NW3.2 kmh NW 2.6 mph4.2 kmh 30.40 in1029.5 mb - 0.00 in0.0 mm 0.00 in0.0 mm
04:50 PM 51.9°F11.1°C 42.4°F5.8°C 70% 2.1 mph E3.4 kmh E 2.6 mph4.2 kmh 30.40 in1029.5 mb - 0.00 in0.0 mm 0.00 in0.0 mm
05:00 PM 50.9°F10.5°C 42.5°F5.8°C 73% 1.6 mph SE2.6 kmh SE 2.6 mph4.2 kmh 30.40 in1029.5 mb - 0.00 in0.0 mm 0.00 in0.0 mm
05:10 PM 49.9°F9.9°C 42.6°F5.9°C 76% 0.9 mph SE1.4 kmh SE 1.3 mph2.1 kmh 30.40 in1029.5 mb - 0.00 in0.0 mm 0.00 in0.0 mm
05:20 PM 48.6°F9.2°C 42.4°F5.8°C 79% Calm Calm -- 30.39 in1029.1 mb - 0.00 in0.0 mm 0.00 in0.0 mm
05:30 PM 47.5°F8.6°C 42.3°F5.7°C 82% Calm Calm -- 30.39 in1029.1 mb - 0.00 in0.0 mm 0.00 in0.0 mm
05:40 PM 46.5°F8.1°C 42.3°F5.7°C 85% Calm Calm -- 30.39 in1029.1 mb - 0.00 in0.0 mm 0.00 in0.0 mm
05:50 PM 45.5°F7.5°C 42.2°F5.7°C 88% Calm Calm -- 30.39 in1029.1 mb - 0.00 in0.0 mm 0.00 in0.0 mm
06:00 PM 44.7°F7.1°C 42.2°F5.7°C 91% Calm Calm -- 30.39 in1029.1 mb - 0.00 in0.0 mm 0.00 in0.0 mm
06:10 PM 44.2°F6.8°C 42.1°F5.6°C 92% Calm Calm -- 30.39 in1029.1 mb - 0.00 in0.0 mm 0.00 in0.0 mm
06:20 PM 43.7°F6.5°C 42.3°F5.7°C 95% Calm Calm -- 30.40 in1029.5 mb - 0.00 in0.0 mm 0.00 in0.0 mm
06:30 PM 43.2°F6.2°C 42.1°F5.6°C 96% Calm Calm -- 30.40 in1029.5 mb - 0.00 in0.0 mm 0.00 in0.0 mm
06:40 PM 43.3°F6.3°C 42.2°F5.7°C 96% Calm Calm -- 30.39 in1029.1 mb - 0.00 in0.0 mm 0.00 in0.0 mm
06:50 PM 43.5°F6.4°C 42.4°F5.8°C 96% Calm Calm -- 30.39 in1029.1 mb - 0.00 in0.0 mm 0.00 in0.0 mm
07:00 PM 43.7°F6.5°C 42.6°F5.9°C 96% Calm Calm -- 30.39 in1029.1 mb - 0.00 in0.0 mm 0.00 in0.0 mm
07:10 PM 43.6°F6.4°C 42.5°F5.8°C 96% Calm Calm -- 30.40 in1029.5 mb - 0.00 in0.0 mm 0.00 in0.0 mm
07:20 PM 43.5°F6.4°C 42.4°F5.8°C 96% Calm Calm -- 30.40 in1029.5 mb - 0.00 in0.0 mm 0.00 in0.0 mm
07:30 PM 43.2°F6.2°C 42.1°F5.6°C 96% Calm Calm -- 30.40 in1029.5 mb - 0.00 in0.0 mm 0.00 in0.0 mm
07:40 PM 42.3°F5.7°C 41.2°F5.1°C 96% Calm Calm -- 30.40 in1029.5 mb - 0.00 in0.0 mm 0.00 in0.0 mm
07:50 PM 41.5°F5.3°C 40.4°F4.7°C 96% Calm Calm -- 30.40 in1029.5 mb - 0.00 in0.0 mm 0.00 in0.0 mm
08:00 PM 40.9°F4.9°C 39.8°F4.3°C 96% Calm Calm -- 30.41 in1029.8 mb - 0.00 in0.0 mm 0.00 in0.0 mm
08:10 PM 39.9°F4.4°C 38.8°F3.8°C 96% Calm Calm -- 30.41 in1029.8 mb - 0.00 in0.0 mm 0.00 in0.0 mm
08:20 PM 39.6°F4.2°C 38.6°F3.7°C 96% Calm Calm -- 30.40 in1029.5 mb - 0.00 in0.0 mm 0.00 in0.0 mm
08:30 PM 39.7°F4.3°C 38.6°F3.7°C 96% Calm Calm -- 30.41 in1029.8 mb - 0.00 in0.0 mm 0.00 in0.0 mm
08:40 PM 39.2°F4.0°C 38.2°F3.4°C 96% Calm Calm -- 30.41 in1029.8 mb - 0.00 in0.0 mm 0.00 in0.0 mm
08:50 PM 39.3°F4.1°C 38.2°F3.4°C 96% Calm Calm -- 30.41 in1029.8 mb - 0.00 in0.0 mm 0.00 in0.0 mm
09:00 PM 38.8°F3.8°C 37.8°F3.2°C 96% Calm Calm -- 30.40 in1029.5 mb - 0.00 in0.0 mm 0.00 in0.0 mm
09:10 PM 38.9°F3.8°C 37.8°F3.2°C 96% Calm Calm -- 30.40 in1029.5 mb - 0.00 in0.0 mm 0.00 in0.0 mm
09:20 PM 38.4°F3.6°C 37.3°F2.9°C 96% Calm Calm -- 30.40 in1029.5 mb - 0.00 in0.0 mm 0.00 in0.0 mm
09:30 PM 38.1°F3.4°C 37.0°F2.8°C 96% Calm Calm -- 30.39 in1029.1 mb - 0.00 in0.0 mm 0.00 in0.0 mm
09:40 PM 38.3°F3.5°C 37.3°F2.9°C 96% Calm Calm -- 30.39 in1029.1 mb - 0.00 in0.0 mm 0.00 in0.0 mm
09:50 PM 38.0°F3.3°C 37.0°F2.8°C 96% Calm Calm -- 30.39 in1029.1 mb - 0.00 in0.0 mm 0.00 in0.0 mm
10:00 PM 37.8°F3.2°C 36.5°F2.5°C 95% Calm Calm -- 30.39 in1029.1 mb - 0.00 in0.0 mm 0.00 in0.0 mm
10:10 PM 37.3°F2.9°C 36.0°F2.2°C 95% Calm Calm -- 30.39 in1029.1 mb - 0.00 in0.0 mm 0.00 in0.0 mm
10:20 PM 37.0°F2.8°C 35.7°F2.1°C 95% Calm Calm -- 30.39 in1029.1 mb - 0.00 in0.0 mm 0.00 in0.0 mm
10:30 PM 36.7°F2.6°C 35.4°F1.9°C 95% Calm Calm -- 30.39 in1029.1 mb - 0.00 in0.0 mm 0.00 in0.0 mm
10:40 PM 36.4°F2.4°C 35.1°F1.7°C 95% Calm Calm -- 30.39 in1029.1 mb - 0.00 in0.0 mm 0.00 in0.0 mm
10:50 PM 36.1°F2.3°C 34.8°F1.6°C 95% Calm Calm -- 30.38 in1028.8 mb - 0.00 in0.0 mm 0.00 in0.0 mm
11:00 PM 35.9°F2.2°C 34.6°F1.4°C 95% Calm Calm -- 30.39 in1029.1 mb - 0.00 in0.0 mm 0.00 in0.0 mm
11:10 PM 35.9°F2.2°C 34.6°F1.4°C 95% Calm Calm -- 30.39 in1029.1 mb - 0.00 in0.0 mm 0.00 in0.0 mm
11:20 PM 35.9°F2.2°C 34.6°F1.4°C 95% Calm Calm -- 30.39 in1029.1 mb - 0.00 in0.0 mm 0.00 in0.0 mm
11:30 PM 35.7°F2.1°C 34.4°F1.3°C 95% Calm Calm -- 30.38 in1028.8 mb - 0.00 in0.0 mm 0.00 in0.0 mm
11:40 PM 35.2°F1.8°C 33.9°F1.1°C 95% Calm Calm -- 30.38 in1028.8 mb - 0.00 in0.0 mm 0.00 in0.0 mm
11:50 PM 35.2°F1.8°C 33.9°F1.1°C 95% Calm Calm -- 30.39 in1029.1 mb - 0.00 in0.0 mm 0.00 in0.0 mm